Time;durP1;ratioP1;P1;durP2;ratioP2;P2;SDS_P1;SDS_P2;PMS_P1;PMS_P2;Temp;Humidity;BMP_temperature;BMP_pressure;BME280_temperature;BME280_humidity;BME280_pressure;Samples;Min_cycle;Max_cycle;Signal;HPM_P1;HPM_P2
2024/02/05 00:01:10;;;;;;;3.90;2.50;;;;;;;-146.29;100.00;59205.81;5095532;28;20188;-69
2024/02/05 00:03:36;;;;;;;3.20;2.23;;;;;;;-146.29;100.00;59205.81;5079555;28;20206;-69
2024/02/05 00:06:02;;;;;;;4.53;3.00;;;;;;;-146.29;100.00;59205.81;5089332;28;20236;-68
2024/02/05 00:08:28;;;;;;;4.20;2.90;;;;;;;-146.29;100.00;59205.81;5098239;28;20188;-71
2024/02/05 00:10:53;;;;;;;3.37;2.47;;;;;;;-146.29;100.00;59205.81;5097572;28;20427;-68
2024/02/05 00:13:19;;;;;;;4.20;2.00;;;;;;;-146.29;100.00;59205.81;5085976;28;20224;-69
2024/02/05 00:15:46;;;;;;;3.47;1.60;;;;;;;-146.29;100.00;59205.81;5087993;28;20222;-67
2024/02/05 00:18:11;;;;;;;1.87;1.67;;;;;;;-146.29;100.00;59205.81;5089804;28;20512;-67
2024/02/05 00:20:37;;;;;;;2.63;1.70;;;;;;;-146.29;100.00;59205.81;5081331;28;20423;-67
2024/02/05 00:23:02;;;;;;;1.70;1.40;;;;;;;-146.29;100.00;59205.81;5091145;28;20190;-69
2024/02/05 00:25:28;;;;;;;1.40;0.90;;;;;;;-146.29;100.00;59205.81;5090242;28;20224;-69
2024/02/05 00:27:53;;;;;;;1.23;1.00;;;;;;;-146.29;100.00;59205.81;5092223;28;20685;-70
2024/02/05 00:30:18;;;;;;;1.30;0.73;;;;;;;-146.29;100.00;59205.81;5020626;28;20182;-68
2024/02/05 00:32:44;;;;;;;1.20;1.00;;;;;;;-146.29;100.00;59205.81;5062714;28;20668;-69
2024/02/05 00:35:10;;;;;;;1.00;0.90;;;;;;;-146.29;100.00;59205.81;5057832;28;20209;-70
2024/02/05 00:37:35;;;;;;;1.50;1.10;;;;;;;-146.29;100.00;59205.81;5062056;28;20198;-67
2024/02/05 00:40:01;;;;;;;1.40;1.00;;;;;;;-146.29;100.00;59205.81;5089356;28;20627;-67
2024/02/05 00:42:26;;;;;;;3.03;1.40;;;;;;;-146.29;100.00;59205.81;5093335;28;20210;-68
2024/02/05 00:44:52;;;;;;;5.23;0.90;;;;;;;-146.29;100.00;59205.81;5095375;28;20268;-68
2024/02/05 00:47:17;;;;;;;1.33;0.70;;;;;;;-146.29;100.00;59205.81;5085041;28;20212;-71
2024/02/05 00:49:43;;;;;;;1.03;0.93;;;;;;;-146.29;100.00;59205.81;5104650;28;20185;-68
2024/02/05 00:52:10;;;;;;;1.37;0.90;;;;;;;-146.29;100.00;59205.81;5100817;28;20181;-69
2024/02/05 00:54:36;;;;;;;0.97;0.77;;;;;;;-146.29;100.00;59205.81;5089143;28;20258;-69
2024/02/05 00:57:01;;;;;;;1.13;1.03;;;;;;;-146.29;100.00;59205.81;5087196;28;20446;-68
2024/02/05 00:59:28;;;;;;;1.37;0.97;;;;;;;-146.29;100.00;59205.81;5089190;28;20177;-68
2024/02/05 01:01:54;;;;;;;1.20;1.10;;;;;;;-146.29;100.00;59205.81;5089152;28;20842;-69
2024/02/05 01:04:19;;;;;;;1.43;1.00;;;;;;;-146.29;100.00;59205.81;5089263;28;20204;-68
2024/02/05 01:06:44;;;;;;;1.53;1.20;;;;;;;-146.29;100.00;59205.81;5088803;28;20339;-68
2024/02/05 01:09:12;;;;;;;1.20;1.00;;;;;;;-146.29;100.00;59205.81;5097357;28;20719;-67
2024/02/05 01:11:38;;;;;;;1.10;0.90;;;;;;;-146.29;100.00;59205.81;5091397;28;20178;-67
2024/02/05 01:14:03;;;;;;;6.00;1.27;;;;;;;-146.29;100.00;59205.81;5076322;28;20526;-67
2024/02/05 01:16:36;;;;;;;2.87;1.93;;;;;;;12.53;55.15;98259.19;5065459;28;21096;-69
2024/02/05 01:19:02;;;;;;;1.60;0.97;;;;;;;12.46;55.13;98254.59;5034542;28;20510;-69
2024/02/05 01:21:28;;;;;;;3.83;1.20;;;;;;;12.36;55.67;98255.41;5052068;28;20209;-70
2024/02/05 01:23:53;;;;;;;1.40;0.87;;;;;;;12.42;55.56;98262.75;5045347;28;20445;-70
2024/02/05 01:26:20;;;;;;;1.13;0.87;;;;;;;12.47;55.36;98261.53;5043623;28;20358;-69
2024/02/05 01:28:46;;;;;;;3.53;0.93;;;;;;;12.48;55.30;98260.53;5043803;28;20652;-69
2024/02/05 01:31:11;;;;;;;1.77;1.07;;;;;;;12.47;55.78;98262.34;5044945;28;20523;-69
2024/02/05 01:33:37;;;;;;;1.20;0.90;;;;;;;12.47;55.32;98272.88;5052452;28;20207;-69
2024/02/05 01:36:04;;;;;;;2.30;1.13;;;;;;;12.49;55.37;98270.09;5044502;28;20301;-69
2024/02/05 01:38:30;;;;;;;1.27;0.80;;;;;;;12.52;55.18;98269.81;5044621;28;20440;-68
2024/02/05 01:40:55;;;;;;;1.07;0.97;;;;;;;12.52;55.32;98273.28;5046676;28;20437;-70
2024/02/05 01:43:21;;;;;;;1.10;0.90;;;;;;;12.55;55.40;98282.69;5050980;28;20279;-70
2024/02/05 01:45:47;;;;;;;1.00;0.80;;;;;;;12.59;55.01;98281.47;5050423;28;20595;-69
2024/02/05 01:48:15;;;;;;;1.40;0.90;;;;;;;12.61;54.81;98287.38;5050727;28;20183;-68
2024/02/05 01:50:41;;;;;;;1.27;0.77;;;;;;;12.62;54.51;98286.41;5050669;28;20432;-69
2024/02/05 01:53:08;;;;;;;1.10;0.90;;;;;;;12.64;54.52;98287.13;5043222;28;20826;-68
2024/02/05 01:55:34;;;;;;;0.83;0.60;;;;;;;12.66;54.52;98289.63;5043699;28;20797;-69
2024/02/05 01:57:59;;;;;;;1.47;1.03;;;;;;;12.68;54.52;98287.66;5044042;28;20451;-68
2024/02/05 02:00:25;;;;;;;2.77;1.13;;;;;;;12.62;54.43;98282.97;5045397;28;20194;-69
2024/02/05 02:02:51;;;;;;;3.87;1.80;;;;;;;12.69;54.36;98287.53;5057272;28;20241;-68
2024/02/05 02:05:17;;;;;;;1.40;1.10;;;;;;;12.69;54.43;98286.69;5048717;28;20441;-67
2024/02/05 02:07:42;;;;;;;4.00;0.80;;;;;;;12.69;54.52;98282.28;5044293;28;20861;-69
2024/02/05 02:10:09;;;;;;;1.00;0.67;;;;;;;12.70;54.59;98291.84;5044310;28;20684;-70
2024/02/05 02:12:34;;;;;;;1.30;0.80;;;;;;;12.66;54.59;98290.44;5047176;28;20544;-68
2024/02/05 02:15:00;;;;;;;1.00;0.70;;;;;;;12.69;54.89;98287.53;5043446;28;20454;-70
2024/02/05 02:17:28;;;;;;;1.00;0.80;;;;;;;12.69;54.17;98292.81;5044097;28;20302;-67
2024/02/05 02:19:54;;;;;;;1.40;0.80;;;;;;;12.65;54.37;98283.50;5052893;28;20659;-69
2024/02/05 02:22:37;;;;;;;2.23;1.50;;;;;;;12.62;54.65;98296.94;5044363;28;20524;-69
2024/02/05 02:25:04;;;;;;;1.47;0.90;;;;;;;12.64;54.50;98288.94;5039608;28;20194;-68
2024/02/05 02:27:30;;;;;;;2.50;0.80;;;;;;;12.64;54.04;98289.75;5038615;28;20449;-68
2024/02/05 02:29:56;;;;;;;1.00;0.80;;;;;;;12.59;54.23;98297.22;5030425;28;20809;-70
2024/02/05 02:32:54;;;;;;;1.70;0.87;;;;;;;12.54;54.22;98304.69;5032844;28;20187;-68
2024/02/05 02:35:38;;;;;;;1.57;0.87;;;;;;;12.50;54.50;98300.66;5008669;28;20577;-68
2024/02/05 02:38:10;;;;;;;3.03;1.20;;;;;;;12.52;54.43;98299.59;5027774;28;20465;-68
2024/02/05 02:40:38;;;;;;;1.73;0.90;;;;;;;12.48;54.23;98295.56;5031792;28;20472;-69
2024/02/05 02:43:05;;;;;;;3.80;1.13;;;;;;;12.46;54.13;98301.94;5026413;28;20494;-70
2024/02/05 02:45:31;;;;;;;3.43;1.13;;;;;;;12.33;53.96;98289.88;5034409;28;20438;-68
2024/02/05 02:47:57;;;;;;;1.30;0.77;;;;;;;12.26;54.40;98291.38;5028554;28;20809;-68
2024/02/05 02:50:22;;;;;;;7.03;0.87;;;;;;;12.08;54.88;98284.19;5031155;28;20435;-67
2024/02/05 02:52:48;;;;;;;1.20;0.80;;;;;;;11.87;55.49;98291.28;5035670;28;20265;-68
2024/02/05 02:55:14;;;;;;;1.77;0.83;;;;;;;11.82;55.42;98286.41;5029852;28;20295;-68
2024/02/05 02:57:40;;;;;;;2.17;0.70;;;;;;;11.72;56.17;98288.19;5035003;28;20280;-69
2024/02/05 03:00:08;;;;;;;1.60;1.10;;;;;;;11.80;55.71;98291.81;5029628;28;20439;-67
2024/02/05 03:02:34;;;;;;;1.43;0.90;;;;;;;11.61;55.70;98265.47;5029987;28;20245;-69
2024/02/05 03:05:00;;;;;;;1.47;1.00;;;;;;;11.68;55.57;98275.31;5037660;28;20442;-68
2024/02/05 03:07:26;;;;;;;4.30;0.80;;;;;;;11.79;55.48;98277.03;5024549;28;20677;-68
2024/02/05 03:09:52;;;;;;;1.43;0.90;;;;;;;11.74;55.36;98276.56;5029534;28;20437;-67
2024/02/05 03:12:18;;;;;;;2.30;0.80;;;;;;;11.88;55.38;98285.91;5029021;28;20195;-67
2024/02/05 03:14:43;;;;;;;1.33;0.83;;;;;;;12.03;55.12;98289.00;5036645;28;20585;-67
2024/02/05 03:17:08;;;;;;;3.10;0.90;;;;;;;11.92;54.78;98289.91;5029212;28;20306;-69
2024/02/05 03:19:34;;;;;;;1.00;0.80;;;;;;;11.95;54.88;98291.44;5029987;28;20188;-68
2024/02/05 03:22:00;;;;;;;1.03;0.90;;;;;;;11.95;54.55;98287.00;5046965;28;20592;-69
2024/02/05 03:24:26;;;;;;;1.00;0.80;;;;;;;12.06;54.31;98285.25;5029613;28;20195;-67
2024/02/05 03:26:52;;;;;;;0.90;0.70;;;;;;;11.96;54.46;98288.69;5037001;28;20218;-69
2024/02/05 03:29:17;;;;;;;3.40;1.83;;;;;;;12.01;54.38;98284.84;5027740;28;20449;-67
2024/02/05 03:31:43;;;;;;;1.23;0.70;;;;;;;11.86;54.51;98287.81;5029264;28;20427;-68
2024/02/05 03:34:09;;;;;;;1.10;0.60;;;;;;;12.01;54.19;98287.47;5028773;28;20218;-69
2024/02/05 03:36:34;;;;;;;1.43;0.60;;;;;;;11.90;54.23;98288.38;5029409;28;20218;-68
2024/02/05 03:39:00;;;;;;;3.33;0.80;;;;;;;11.98;54.29;98286.78;5027700;28;20787;-68
2024/02/05 03:41:25;;;;;;;3.70;0.83;;;;;;;12.04;54.23;98287.19;5035097;28;20198;-69
2024/02/05 03:43:51;;;;;;;1.57;0.70;;;;;;;12.09;54.12;98292.88;5028867;28;20238;-67
2024/02/05 03:46:16;;;;;;;1.23;0.70;;;;;;;12.02;54.33;98297.03;5028995;28;20222;-68
2024/02/05 03:48:51;;;;;;;1.03;0.60;;;;;;;11.91;54.60;98290.03;5027312;28;20270;-69
2024/02/05 03:51:17;;;;;;;1.00;0.60;;;;;;;11.98;54.17;98292.03;5031089;28;20187;-69
2024/02/05 03:53:42;;;;;;;0.90;0.80;;;;;;;12.02;54.20;98297.84;5036426;28;20449;-69
2024/02/05 03:56:09;;;;;;;1.00;0.60;;;;;;;12.14;53.72;98304.66;5032681;28;20239;-69
2024/02/05 03:58:35;;;;;;;2.70;0.80;;;;;;;12.13;54.03;98295.09;5029002;28;20195;-70
2024/02/05 04:01:00;;;;;;;2.23;0.67;;;;;;;12.23;53.65;98300.38;5028789;28;20445;-67
2024/02/05 04:03:25;;;;;;;0.90;0.60;;;;;;;12.12;53.91;98284.72;5028834;28;20202;-69
2024/02/05 04:05:51;;;;;;;1.53;0.70;;;;;;;12.21;53.87;98296.22;5027788;28;20187;-68
2024/02/05 04:08:16;;;;;;;1.43;0.70;;;;;;;12.18;53.73;98302.56;5027488;28;20275;-68
2024/02/05 04:10:42;;;;;;;0.90;0.60;;;;;;;12.01;53.76;98300.63;5041286;28;20321;-69
2024/02/05 04:13:07;;;;;;;1.10;0.60;;;;;;;12.00;54.23;98305.03;5028582;28;20278;-67
2024/02/05 04:15:34;;;;;;;0.80;0.60;;;;;;;12.16;53.79;98307.13;5029899;28;20215;-69
2024/02/05 04:18:00;;;;;;;2.23;0.60;;;;;;;12.17;53.63;98315.88;5034752;28;20326;-69
2024/02/05 04:20:25;;;;;;;0.90;0.57;;;;;;;12.19;53.74;98313.94;5028415;28;20502;-68
2024/02/05 04:22:51;;;;;;;2.10;0.70;;;;;;;12.27;53.55;98307.03;5031138;28;20258;-67
2024/02/05 04:25:16;;;;;;;2.20;0.60;;;;;;;12.31;53.72;98320.72;5028063;28;20192;-69
2024/02/05 04:27:41;;;;;;;1.47;0.50;;;;;;;12.30;53.24;98305.94;5028398;28;20246;-69
2024/02/05 04:30:07;;;;;;;1.33;0.60;;;;;;;12.28;53.34;98311.34;5031936;28;20707;-68
2024/02/05 04:32:33;;;;;;;2.10;0.70;;;;;;;12.25;53.78;98308.13;5031022;28;20711;-68
2024/02/05 04:34:59;;;;;;;1.00;0.70;;;;;;;12.36;53.33;98309.81;5035768;28;20210;-67
2024/02/05 04:37:26;;;;;;;2.40;0.70;;;;;;;12.29;53.34;98299.00;5035144;28;20493;-69
2024/02/05 04:39:53;;;;;;;0.90;0.60;;;;;;;12.27;53.38;98300.94;5036146;28;20195;-69
2024/02/05 04:42:19;;;;;;;1.00;0.80;;;;;;;12.22;53.71;98308.41;5038768;28;20967;-67
2024/02/05 04:44:44;;;;;;;1.00;0.77;;;;;;;12.27;53.80;98301.78;5027771;28;20439;-69
2024/02/05 04:47:09;;;;;;;3.60;1.00;;;;;;;12.27;54.00;98306.19;5026131;28;20282;-66
2024/02/05 04:49:35;;;;;;;1.40;0.80;;;;;;;12.25;54.43;98292.34;5028903;28;20286;-68
2024/02/05 04:52:00;;;;;;;1.50;0.80;;;;;;;12.28;54.21;98298.19;5024125;28;20199;-68
2024/02/05 04:54:27;;;;;;;1.37;0.80;;;;;;;12.31;53.93;98296.22;5025219;28;20269;-68
2024/02/05 04:56:52;;;;;;;2.43;0.80;;;;;;;12.28;54.02;98299.97;5026949;28;20270;-70
2024/02/05 04:59:18;;;;;;;1.03;0.70;;;;;;;12.28;53.51;98302.59;5027716;28;21042;-68
2024/02/05 05:01:43;;;;;;;0.90;0.70;;;;;;;12.18;53.70;98305.19;5026791;28;20890;-67
2024/02/05 05:04:09;;;;;;;1.33;0.83;;;;;;;12.18;54.19;98310.47;5034919;28;20266;-67
2024/02/05 05:06:34;;;;;;;4.20;0.90;;;;;;;12.20;53.76;98307.72;5026829;28;20286;-68
2024/02/05 05:09:00;;;;;;;2.20;0.87;;;;;;;12.08;54.13;98313.09;5032126;28;20274;-68
2024/02/05 05:11:25;;;;;;;1.00;0.90;;;;;;;12.16;53.64;98322.09;5027745;28;20196;-69
2024/02/05 05:13:50;;;;;;;1.50;0.87;;;;;;;12.13;53.94;98310.06;4989698;28;20598;-69
2024/02/05 05:16:17;;;;;;;1.23;0.80;;;;;;;12.22;53.86;98324.19;5027112;28;20212;-68
2024/02/05 05:18:42;;;;;;;1.20;0.93;;;;;;;12.29;53.51;98320.03;5031597;28;20224;-70
2024/02/05 05:21:08;;;;;;;0.90;0.60;;;;;;;12.10;53.72;98324.25;5026753;28;20445;-67
2024/02/05 05:23:33;;;;;;;2.07;0.90;;;;;;;12.07;53.49;98332.44;5035205;28;20285;-70
2024/02/05 05:25:59;;;;;;;1.77;1.57;;;;;;;12.11;53.39;98328.56;5025183;28;20274;-70
2024/02/05 05:28:24;;;;;;;0.93;0.80;;;;;;;12.20;53.76;98332.19;5025417;28;20664;-68
2024/02/05 05:30:50;;;;;;;2.00;1.30;;;;;;;12.21;53.18;98327.78;5026611;28;20680;-68
2024/02/05 05:33:16;;;;;;;1.67;1.10;;;;;;;12.20;53.36;98339.25;5028622;28;20184;-70
2024/02/05 05:35:41;;;;;;;4.70;0.90;;;;;;;12.16;53.55;98332.59;5039395;28;20207;-68
2024/02/05 05:38:07;;;;;;;1.07;0.87;;;;;;;12.10;53.55;98331.34;5028482;28;20873;-68
2024/02/05 05:40:33;;;;;;;3.13;0.80;;;;;;;12.12;53.82;98327.59;5030212;28;20313;-67
2024/02/05 05:42:58;;;;;;;1.30;0.90;;;;;;;12.08;53.44;98333.25;5026278;28;20188;-67
2024/02/05 05:45:27;;;;;;;2.10;0.80;;;;;;;12.14;53.74;98328.28;5027238;28;20899;-67
2024/02/05 05:47:52;;;;;;;1.00;0.80;;;;;;;12.15;53.28;98334.41;5025680;28;20293;-67
2024/02/05 05:50:18;;;;;;;1.63;0.70;;;;;;;12.06;53.48;98324.69;5027649;28;20434;-69
2024/02/05 05:52:43;;;;;;;1.53;0.87;;;;;;;11.96;53.72;98327.25;5026788;28;20204;-68
2024/02/05 05:55:09;;;;;;;1.27;0.70;;;;;;;11.97;53.71;98321.88;5025478;28;20736;-67
2024/02/05 05:57:35;;;;;;;0.90;0.70;;;;;;;12.03;53.43;98319.72;5036941;28;20219;-69
2024/02/05 06:00:00;;;;;;;1.30;0.80;;;;;;;11.99;53.73;98321.75;5026714;28;20441;-68
2024/02/05 06:02:25;;;;;;;1.20;0.70;;;;;;;11.99;53.81;98321.75;5028049;28;20199;-68
2024/02/05 06:04:51;;;;;;;1.73;0.70;;;;;;;11.93;53.52;98330.16;5029858;28;20215;-68
2024/02/05 06:07:16;;;;;;;1.10;0.70;;;;;;;11.97;53.90;98321.88;5035437;28;20268;-69
2024/02/05 06:09:42;;;;;;;1.23;0.70;;;;;;;12.03;53.45;98323.16;5030533;28;20608;-68
2024/02/05 06:12:08;;;;;;;0.90;0.70;;;;;;;12.00;53.21;98314.72;5035132;28;20277;-67
2024/02/05 06:14:33;;;;;;;1.10;0.70;;;;;;;11.98;53.43;98313.06;5029622;28;20207;-68
2024/02/05 06:16:59;;;;;;;0.93;0.80;;;;;;;11.94;53.77;98313.44;5029209;28;20269;-70
2024/02/05 06:19:24;;;;;;;0.80;0.60;;;;;;;11.96;53.57;98303.63;5030577;28;20199;-69
2024/02/05 06:21:49;;;;;;;1.20;0.70;;;;;;;11.97;53.62;98305.28;5031979;28;20193;-70
2024/02/05 06:24:15;;;;;;;13.87;1.00;;;;;;;12.06;53.13;98304.50;5038453;28;20188;-69
2024/02/05 06:26:41;;;;;;;1.30;0.80;;;;;;;12.06;53.54;98304.50;5035578;28;20703;-69
2024/02/05 06:29:07;;;;;;;2.07;1.10;;;;;;;12.06;53.26;98307.13;5050378;28;20203;-68
2024/02/05 06:31:32;;;;;;;1.63;0.80;;;;;;;12.03;53.09;98310.03;5033476;28;20431;-68
2024/02/05 06:33:57;;;;;;;1.50;0.90;;;;;;;11.96;53.33;98311.50;5035966;28;20191;-69
2024/02/05 06:36:23;;;;;;;3.20;0.80;;;;;;;12.05;53.38;98307.25;5030713;28;20243;-69
2024/02/05 06:38:48;;;;;;;1.20;1.00;;;;;;;12.06;52.79;98309.75;5029080;28;20664;-68
2024/02/05 06:41:14;;;;;;;1.30;0.97;;;;;;;11.98;53.10;98306.94;5035597;28;20605;-69
2024/02/05 06:43:40;;;;;;;1.10;1.00;;;;;;;11.96;53.39;98314.94;5035334;28;20268;-69
2024/02/05 06:46:06;;;;;;;2.07;1.30;;;;;;;11.98;52.97;98310.44;5029017;28;20192;-69
2024/02/05 06:48:33;;;;;;;1.50;1.10;;;;;;;11.96;52.99;98298.38;5029720;28;20697;-69
2024/02/05 06:50:59;;;;;;;2.20;1.07;;;;;;;11.98;53.17;98312.19;5029691;28;20977;-69
2024/02/05 06:53:24;;;;;;;3.23;1.30;;;;;;;11.94;52.47;98310.81;5028819;28;20477;-68
2024/02/05 06:55:50;;;;;;;2.20;1.10;;;;;;;11.95;52.94;98312.47;5037835;28;20344;-69
2024/02/05 06:58:15;;;;;;;3.73;2.07;;;;;;;11.97;52.82;98310.53;5028477;28;20221;-69
2024/02/05 07:00:41;;;;;;;2.53;1.30;;;;;;;11.91;53.16;98311.06;5034666;28;20727;-69
2024/02/05 07:03:06;;;;;;;2.03;0.97;;;;;;;11.97;52.98;98310.53;5040438;28;20230;-69
2024/02/05 07:05:32;;;;;;;1.63;1.50;;;;;;;11.90;52.99;98309.41;5034532;28;20273;-68
2024/02/05 07:07:57;;;;;;;1.97;1.00;;;;;;;11.98;52.74;98323.56;5032228;28;20215;-69
2024/02/05 07:10:23;;;;;;;2.10;1.20;;;;;;;11.97;52.81;98315.78;5032271;28;20858;-68
2024/02/05 07:12:48;;;;;;;1.40;1.17;;;;;;;12.01;52.58;98321.63;5029274;28;20229;-69
2024/02/05 07:15:14;;;;;;;2.73;1.20;;;;;;;11.97;52.52;98316.63;5030616;28;20203;-68
2024/02/05 07:17:39;;;;;;;1.70;0.90;;;;;;;11.88;52.60;98321.81;5029264;28;20218;-69
2024/02/05 07:20:05;;;;;;;1.40;1.13;;;;;;;11.86;52.87;98324.59;5032309;28;20191;-69
2024/02/05 07:22:31;;;;;;;1.60;1.03;;;;;;;11.92;52.41;98324.06;5030711;28;20285;-70
2024/02/05 07:24:57;;;;;;;1.87;1.17;;;;;;;11.89;52.84;98334.00;5027746;28;20249;-68
2024/02/05 07:27:23;;;;;;;2.17;1.20;;;;;;;11.92;52.92;98321.44;5029455;28;20566;-68
2024/02/05 07:29:49;;;;;;;1.73;1.20;;;;;;;11.83;53.02;98325.72;5029388;28;20202;-69
2024/02/05 07:32:14;;;;;;;4.00;1.20;;;;;;;11.88;53.13;98340.22;5028378;28;21058;-69
2024/02/05 07:34:40;;;;;;;1.63;1.00;;;;;;;11.80;53.53;98339.09;5029193;28;20299;-69
2024/02/05 07:37:06;;;;;;;1.60;1.20;;;;;;;11.62;53.39;98335.41;5028256;28;20222;-69
2024/02/05 07:39:31;;;;;;;2.30;1.40;;;;;;;11.76;53.46;98340.31;5028246;28;20226;-70
2024/02/05 07:41:57;;;;;;;3.40;1.40;;;;;;;11.67;53.26;98341.94;5030999;28;20196;-70
2024/02/05 07:44:23;;;;;;;1.50;1.20;;;;;;;11.69;53.38;98344.44;5028962;28;20657;-71
2024/02/05 07:46:48;;;;;;;5.13;1.40;;;;;;;11.77;53.54;98347.22;5036356;28;20453;-68
2024/02/05 07:49:14;;;;;;;3.63;1.40;;;;;;;11.83;53.22;98346.72;5029272;28;20195;-68
2024/02/05 07:51:46;;;;;;;1.30;1.20;;;;;;;11.68;53.08;98348.03;5028530;28;20245;-68
2024/02/05 07:54:15;;;;;;;1.50;1.20;;;;;;;11.67;53.77;98351.63;5028523;28;20199;-69
2024/02/05 07:56:44;;;;;;;1.40;1.10;;;;;;;11.69;53.66;98349.69;5026064;28;20879;-68
2024/02/05 07:59:10;;;;;;;5.37;1.47;;;;;;;11.62;54.27;98343.28;5028027;28;20435;-67
2024/02/05 08:01:36;;;;;;;4.40;1.20;;;;;;;11.71;53.89;98349.56;5034593;28;20449;-69
2024/02/05 08:04:02;;;;;;;2.10;1.10;;;;;;;11.68;53.62;98348.03;5029497;28;20199;-69
2024/02/05 08:06:32;;;;;;;3.03;1.40;;;;;;;11.73;53.47;98345.00;5011617;28;20532;-68
2024/02/05 08:08:57;;;;;;;2.60;1.20;;;;;;;11.70;53.30;98340.00;5027924;28;20569;-68
2024/02/05 08:11:26;;;;;;;2.10;0.90;;;;;;;11.94;53.06;98340.53;5033792;28;20464;-68
2024/02/05 08:13:54;;;;;;;3.33;1.10;;;;;;;12.19;52.43;98334.97;5028631;28;20203;-68
2024/02/05 08:16:19;;;;;;;2.03;1.40;;;;;;;12.27;52.30;98335.09;5032156;28;20461;-68
2024/02/05 08:18:46;;;;;;;6.27;1.10;;;;;;;12.07;52.49;98340.31;5029034;28;20771;-69
2024/02/05 08:21:12;;;;;;;1.33;1.10;;;;;;;12.53;51.60;98337.22;5027500;28;20213;-69
2024/02/05 08:23:38;;;;;;;1.37;1.00;;;;;;;12.99;50.99;98333.06;5029192;28;20426;-68
2024/02/05 08:26:04;;;;;;;1.00;0.83;;;;;;;13.17;49.80;98333.16;5035374;28;20215;-68
2024/02/05 08:28:29;;;;;;;1.40;1.00;;;;;;;13.57;49.27;98333.94;5027940;28;20462;-68
2024/02/05 08:30:56;;;;;;;3.73;1.13;;;;;;;13.82;48.45;98339.53;5028628;28;20583;-68
2024/02/05 08:33:21;;;;;;;1.93;0.83;;;;;;;14.08;47.50;98338.88;5030961;28;20187;-68
2024/02/05 08:35:47;;;;;;;2.40;1.00;;;;;;;14.14;46.75;98332.97;5030680;28;21237;-68
2024/02/05 08:38:12;;;;;;;2.60;1.30;;;;;;;14.47;46.38;98333.34;5027630;28;20223;-68
2024/02/05 08:40:38;;;;;;;2.10;1.10;;;;;;;14.70;46.07;98325.00;5031272;28;20229;-68
2024/02/05 08:43:04;;;;;;;1.10;0.80;;;;;;;14.77;46.05;98323.41;5028664;28;20641;-69
2024/02/05 08:45:30;;;;;;;2.27;1.23;;;;;;;15.06;45.11;98327.63;5029819;28;20192;-69
2024/02/05 08:47:55;;;;;;;1.80;1.00;;;;;;;15.02;44.94;98326.25;5028348;28;20639;-69
2024/02/05 08:50:29;;;;;;;1.20;0.83;;;;;;;15.26;44.20;98332.69;5030897;28;20212;-69
2024/02/05 08:52:54;;;;;;;4.20;1.13;;;;;;;15.56;43.46;98327.94;5037525;28;20194;-70
2024/02/05 08:55:19;;;;;;;2.80;1.17;;;;;;;15.77;43.15;98330.19;5031075;28;20458;-69
2024/02/05 08:57:49;;;;;;;2.10;1.50;;;;;;;15.90;42.27;98325.31;5029600;28;20736;-68
2024/02/05 09:00:15;;;;;;;1.20;1.00;;;;;;;16.34;42.42;98324.31;4993548;28;20196;-68
2024/02/05 09:02:40;;;;;;;3.03;1.40;;;;;;;16.82;41.40;98329.00;4995304;28;21139;-70
2024/02/05 09:05:06;;;;;;;1.10;1.00;;;;;;;17.09;40.64;98321.75;5032962;28;20311;-69
2024/02/05 09:07:31;;;;;;;3.07;1.00;;;;;;;17.41;40.29;98325.31;5027794;28;20212;-68
2024/02/05 09:09:58;;;;;;;3.70;1.17;;;;;;;17.29;39.35;98322.22;5027419;28;20204;-70
2024/02/05 09:12:23;;;;;;;1.97;0.97;;;;;;;17.49;39.00;98335.94;5032082;28;20615;-68
2024/02/05 09:14:50;;;;;;;1.37;0.80;;;;;;;17.74;38.68;98319.97;5027920;28;20459;-68
2024/02/05 09:17:17;;;;;;;1.30;0.90;;;;;;;18.00;38.12;98326.84;5027277;28;20338;-69
2024/02/05 09:19:44;;;;;;;2.30;0.90;;;;;;;17.86;38.31;98337.16;5033030;28;20438;-68
2024/02/05 09:22:10;;;;;;;3.43;0.97;;;;;;;17.65;38.90;98324.44;5028548;28;20427;-69
2024/02/05 09:24:36;;;;;;;1.20;0.90;;;;;;;17.66;38.86;98320.81;5032464;28;20911;-68
2024/02/05 09:27:01;;;;;;;2.80;0.90;;;;;;;17.94;37.97;98315.88;5027713;28;20815;-68
2024/02/05 09:29:26;;;;;;;3.20;0.97;;;;;;;18.14;37.73;98315.50;5038809;28;20652;-68
2024/02/05 09:31:53;;;;;;;2.70;0.97;;;;;;;18.39;37.46;98313.53;5031907;28;20290;-70
2024/02/05 09:34:18;;;;;;;1.20;0.80;;;;;;;18.65;37.07;98311.56;5029437;28;20195;-70
2024/02/05 09:36:44;;;;;;;5.30;0.90;;;;;;;18.74;36.99;98318.44;5032921;28;21021;-69
2024/02/05 09:39:11;;;;;;;2.50;1.10;;;;;;;18.79;36.46;98310.75;5033737;28;20199;-69
2024/02/05 09:41:37;;;;;;;1.50;1.03;;;;;;;19.09;36.68;98308.22;5038475;28;20191;-68
2024/02/05 09:44:03;;;;;;;1.50;1.10;;;;;;;19.40;35.86;98320.56;5030580;28;20465;-68
2024/02/05 09:46:32;;;;;;;2.23;1.20;;;;;;;19.63;35.56;98312.47;5036606;28;20481;-70
2024/02/05 09:49:03;;;;;;;2.67;1.20;;;;;;;19.98;35.06;98313.75;5030578;28;20466;-67
2024/02/05 09:51:32;;;;;;;2.87;1.07;;;;;;;20.34;34.13;98303.13;5040012;28;20437;-67
2024/02/05 09:53:57;;;;;;;4.37;1.10;;;;;;;19.78;34.17;98309.81;5050869;28;20461;-69
2024/02/05 09:56:25;;;;;;;2.60;0.90;;;;;;;19.78;34.17;98309.81;5032848;28;21246;-69
2024/02/05 09:58:51;;;;;;;3.10;1.00;;;;;;;19.89;34.37;98308.53;5030818;28;20194;-68
2024/02/05 10:01:18;;;;;;;4.33;1.30;;;;;;;19.92;34.42;98316.16;5029360;28;20488;-69
2024/02/05 10:03:46;;;;;;;4.80;1.10;;;;;;;19.51;34.56;98318.44;5024955;28;20418;-69
2024/02/05 10:06:13;;;;;;;5.57;1.17;;;;;;;19.49;35.27;98319.44;5028596;28;20430;-68
2024/02/05 10:08:40;;;;;;;3.20;1.00;;;;;;;19.80;34.75;98313.09;5030326;28;20430;-68
2024/02/05 10:11:06;;;;;;;2.50;1.00;;;;;;;20.04;34.48;98313.84;5030031;28;20432;-69
2024/02/05 10:13:33;;;;;;;1.57;1.20;;;;;;;20.39;33.95;98314.06;5030191;28;20432;-69
2024/02/05 10:15:58;;;;;;;3.10;1.30;;;;;;;20.49;33.48;98304.94;5036908;28;20794;-69
2024/02/05 10:18:24;;;;;;;2.80;1.60;;;;;;;20.89;32.99;98305.34;5029655;28;20541;-69
2024/02/05 10:20:49;;;;;;;2.03;1.10;;;;;;;20.64;33.02;98308.34;5030904;28;20200;-69
2024/02/05 10:23:15;;;;;;;6.00;1.10;;;;;;;20.51;32.65;98308.22;5030797;28;20231;-69
2024/02/05 10:25:40;;;;;;;3.00;0.90;;;;;;;20.57;33.20;98304.78;5030666;28;20192;-69
2024/02/05 10:28:06;;;;;;;1.57;0.90;;;;;;;20.73;32.51;98306.38;5036638;28;20242;-69
2024/02/05 10:30:32;;;;;;;3.10;1.03;;;;;;;20.92;32.60;98304.94;5034096;28;20250;-69
2024/02/05 10:32:59;;;;;;;5.30;1.10;;;;;;;20.96;32.85;98292.88;5030227;28;20458;-69
2024/02/05 10:35:27;;;;;;;5.03;1.17;;;;;;;21.24;32.65;98305.38;5032206;28;20206;-68
2024/02/05 10:37:54;;;;;;;1.93;1.10;;;;;;;21.35;32.07;98298.69;5029929;28;20854;-70
2024/02/05 10:40:20;;;;;;;6.97;1.20;;;;;;;21.21;31.88;98289.78;5032566;28;20437;-69
2024/02/05 10:42:45;;;;;;;14.23;1.17;;;;;;;21.69;31.91;98285.56;5031198;28;20927;-68
2024/02/05 10:45:11;;;;;;;5.50;1.10;;;;;;;21.69;31.66;98282.91;5030983;28;20188;-70
2024/02/05 10:47:37;;;;;;;4.57;0.90;;;;;;;21.43;31.48;98284.38;5032104;28;20214;-67
2024/02/05 10:50:06;;;;;;;3.57;1.60;;;;;;;21.67;31.24;98274.28;5032764;28;20199;-70
2024/02/05 10:52:33;;;;;;;5.67;1.30;;;;;;;21.86;30.70;98270.06;5023801;28;20202;-68
2024/02/05 10:54:59;;;;;;;1.67;0.90;;;;;;;21.90;31.10;98269.47;5030894;28;20545;-68
2024/02/05 10:57:26;;;;;;;3.27;1.13;;;;;;;21.80;31.11;98263.66;5030639;28;20597;-68
2024/02/05 10:59:54;;;;;;;2.83;0.93;;;;;;;21.54;31.77;98259.84;5012224;28;20530;-69
2024/02/05 11:02:25;;;;;;;1.40;0.80;;;;;;;21.59;31.13;98261.91;5030755;28;20423;-69
2024/02/05 11:04:55;;;;;;;2.07;1.00;;;;;;;21.48;30.96;98255.28;5033618;28;20432;-69
2024/02/05 11:07:21;;;;;;;4.03;1.00;;;;;;;21.37;31.35;98261.16;5029337;28;20500;-69
2024/02/05 11:09:48;;;;;;;4.40;1.73;;;;;;;20.91;31.90;98244.69;5036481;28;20426;-69
2024/02/05 11:12:15;;;;;;;4.07;1.07;;;;;;;21.15;31.57;98247.94;5029041;28;21155;-69
2024/02/05 11:14:44;;;;;;;1.97;1.10;;;;;;;21.28;31.88;98244.50;5029193;28;20449;-69
2024/02/05 11:17:10;;;;;;;3.27;1.10;;;;;;;21.13;31.96;98236.63;5028281;28;20530;-68
2024/02/05 11:19:37;;;;;;;12.90;0.87;;;;;;;21.58;31.80;98228.25;5030055;28;20456;-69
2024/02/05 11:22:02;;;;;;;2.90;1.40;;;;;;;21.75;30.82;98231.44;5021095;28;20474;-68
2024/02/05 11:24:28;;;;;;;2.50;0.97;;;;;;;21.46;31.29;98228.00;5011978;28;20461;-68
2024/02/05 11:26:55;;;;;;;1.50;1.00;;;;;;;21.37;31.13;98213.19;5012448;28;20857;-68